createdAt,value
2018-11-04T00:01:04.255Z,99.90
2018-11-04T00:03:32.715Z,99.90
2018-11-04T00:06:01.208Z,99.90
2018-11-04T00:08:29.695Z,99.90
2018-11-04T00:10:58.182Z,99.90
2018-11-04T00:13:26.667Z,99.90
2018-11-04T00:15:55.157Z,99.90
2018-11-04T00:18:23.680Z,99.90
2018-11-04T00:20:52.140Z,99.90
2018-11-04T00:23:20.626Z,99.90
2018-11-04T00:25:49.088Z,99.90
2018-11-04T00:28:17.687Z,99.90
2018-11-04T00:30:46.168Z,99.90
2018-11-04T00:33:14.686Z,99.90
2018-11-04T00:35:43.139Z,99.90
2018-11-04T00:38:11.616Z,99.90
2018-11-04T00:40:40.058Z,99.90
2018-11-04T00:43:08.587Z,99.90
2018-11-04T00:45:37.152Z,99.90
2018-11-04T00:48:05.961Z,99.90
2018-11-04T00:50:34.423Z,99.90
2018-11-04T00:53:02.890Z,99.90
2018-11-04T00:55:31.357Z,99.90
2018-11-04T00:57:59.855Z,99.90
2018-11-04T01:00:28.352Z,99.90
2018-11-04T01:02:56.841Z,99.90
2018-11-04T01:05:25.279Z,99.90
2018-11-04T01:07:53.730Z,99.90
2018-11-04T01:10:22.214Z,99.90
2018-11-04T01:12:50.630Z,99.90
2018-11-04T01:15:19.102Z,99.90
2018-11-04T01:17:47.572Z,99.90
2018-11-04T01:20:16.970Z,99.90
2018-11-04T01:22:45.988Z,99.90
2018-11-04T01:25:14.465Z,99.90
2018-11-04T01:27:42.902Z,99.90
2018-11-04T01:30:13.426Z,99.90
2018-11-04T01:32:41.941Z,99.90
2018-11-04T01:35:10.456Z,99.90
2018-11-04T01:37:38.868Z,99.90
2018-11-04T01:40:08.480Z,99.90
2018-11-04T01:42:37.154Z,99.90
2018-11-04T01:45:06.821Z,99.90
2018-11-04T01:47:37.836Z,99.90
2018-11-04T01:50:09.620Z,99.90
2018-11-04T01:52:40.380Z,99.90
2018-11-04T01:55:09.493Z,99.90
2018-11-04T01:57:38.182Z,99.90
2018-11-04T02:00:11.232Z,99.90
2018-11-04T02:02:39.723Z,99.90
2018-11-04T02:05:09.224Z,99.90
2018-11-04T02:07:37.746Z,99.90
2018-11-04T02:10:07.546Z,99.90
2018-11-04T02:12:36.329Z,99.90
2018-11-04T02:15:05.542Z,99.90
2018-11-04T02:17:33.974Z,99.90
2018-11-04T02:20:02.451Z,99.90
2018-11-04T02:22:30.950Z,99.90
2018-11-04T02:24:59.400Z,99.90
2018-11-04T02:27:28.230Z,99.90
2018-11-04T02:29:56.682Z,99.90
2018-11-04T02:32:25.169Z,99.90
2018-11-04T02:34:53.619Z,99.90
2018-11-04T02:37:22.055Z,99.90
2018-11-04T02:39:50.563Z,99.90
2018-11-04T02:42:19.036Z,99.90
2018-11-04T02:44:47.590Z,99.90
2018-11-04T02:47:16.078Z,99.90
2018-11-04T02:49:44.566Z,99.90
2018-11-04T02:52:13.013Z,99.90
2018-11-04T02:54:41.483Z,99.90
2018-11-04T02:57:10.001Z,99.90
2018-11-04T02:59:38.482Z,99.90
2018-11-04T03:02:07.427Z,99.90
2018-11-04T03:04:35.918Z,99.90
2018-11-04T03:07:04.778Z,99.90
2018-11-04T03:09:33.219Z,99.90
2018-11-04T03:12:01.699Z,99.90
2018-11-04T03:14:30.121Z,99.90
2018-11-04T03:16:58.591Z,99.90
2018-11-04T03:19:27.078Z,99.90
2018-11-04T03:21:55.551Z,99.90
2018-11-04T03:24:24.033Z,99.90
2018-11-04T03:26:52.555Z,99.90
2018-11-04T03:29:21.061Z,99.90
2018-11-04T03:31:50.213Z,99.90
2018-11-04T03:34:18.809Z,99.90
2018-11-04T03:36:47.287Z,99.90
2018-11-04T03:39:15.777Z,99.90
2018-11-04T03:41:44.275Z,99.90
2018-11-04T03:44:13.091Z,99.90
2018-11-04T03:46:41.573Z,99.90
2018-11-04T03:49:10.061Z,99.90
2018-11-04T03:51:38.582Z,99.90
2018-11-04T03:54:07.369Z,99.90
2018-11-04T03:56:36.269Z,99.90
2018-11-04T03:59:05.157Z,99.90
2018-11-04T04:01:33.628Z,99.90
2018-11-04T04:04:02.105Z,99.90
2018-11-04T04:06:30.555Z,99.90
2018-11-04T04:08:58.990Z,99.90
2018-11-04T04:11:27.446Z,99.90
2018-11-04T04:13:55.902Z,99.90
2018-11-04T04:16:24.351Z,99.90
2018-11-04T04:18:52.813Z,99.90
2018-11-04T04:21:21.257Z,99.90
2018-11-04T04:23:49.687Z,99.90
2018-11-04T04:26:18.184Z,99.90
2018-11-04T04:28:46.627Z,99.90
2018-11-04T04:31:15.044Z,99.90
2018-11-04T04:33:43.557Z,99.90
2018-11-04T04:36:12.011Z,99.90
2018-11-04T04:38:40.469Z,99.90
2018-11-04T04:41:08.924Z,99.90
2018-11-04T04:43:37.360Z,99.90
2018-11-04T04:46:05.902Z,99.90
2018-11-04T04:48:35.013Z,99.90
2018-11-04T04:51:03.479Z,99.90
2018-11-04T04:53:31.975Z,99.90
2018-11-04T04:56:01.434Z,99.90
2018-11-04T04:58:29.907Z,99.90
2018-11-04T05:00:58.414Z,99.90
2018-11-04T05:03:26.850Z,99.90
2018-11-04T05:05:55.295Z,99.90
2018-11-04T05:08:23.801Z,99.90
2018-11-04T05:10:52.238Z,99.90
2018-11-04T05:13:20.702Z,99.90
2018-11-04T05:15:49.165Z,99.90
2018-11-04T05:18:17.579Z,99.90
2018-11-04T05:20:46.025Z,99.90
2018-11-04T05:23:14.507Z,99.90
2018-11-04T05:25:42.947Z,99.90
2018-11-04T05:28:11.417Z,99.90
2018-11-04T05:30:39.977Z,99.90
2018-11-04T05:33:08.436Z,99.90
2018-11-04T05:35:36.877Z,99.90
2018-11-04T05:38:05.641Z,99.90
2018-11-04T05:40:34.076Z,99.90
2018-11-04T05:43:02.551Z,99.90
2018-11-04T05:45:31.048Z,99.90
2018-11-04T05:47:59.510Z,99.90
2018-11-04T05:50:27.991Z,99.90
2018-11-04T05:52:56.475Z,99.90
2018-11-04T05:55:24.994Z,99.90
2018-11-04T05:57:53.555Z,99.90
2018-11-04T06:00:22.028Z,99.90
2018-11-04T06:02:50.525Z,99.90
2018-11-04T06:05:18.955Z,99.90
2018-11-04T06:07:47.456Z,99.90
2018-11-04T06:10:15.924Z,99.90
2018-11-04T06:12:44.391Z,99.90
2018-11-04T06:15:12.941Z,99.90
2018-11-04T06:17:41.447Z,99.90
2018-11-04T06:20:10.933Z,99.90
2018-11-04T06:22:39.458Z,99.90
2018-11-04T06:25:08.201Z,99.90
2018-11-04T06:27:36.723Z,99.90
2018-11-04T06:30:07.554Z,99.90
2018-11-04T06:32:36.057Z,99.90
2018-11-04T06:35:05.965Z,99.90
2018-11-04T06:37:35.527Z,99.90
2018-11-04T06:40:04.208Z,99.90
2018-11-04T06:42:32.704Z,99.90
2018-11-04T06:45:01.140Z,99.90
2018-11-04T06:47:29.923Z,99.90
2018-11-04T06:49:58.364Z,99.90
2018-11-04T06:52:26.788Z,99.90
2018-11-04T06:54:55.248Z,99.90
2018-11-04T06:57:23.756Z,99.90
2018-11-04T06:59:52.203Z,99.90
2018-11-04T07:02:20.622Z,99.90
2018-11-04T07:04:49.085Z,99.90
2018-11-04T07:07:17.615Z,99.90
2018-11-04T07:09:46.054Z,99.90
2018-11-04T07:12:14.557Z,99.90
2018-11-04T07:14:43.018Z,99.90
2018-11-04T07:17:11.482Z,99.90
2018-11-04T07:19:39.997Z,99.90
2018-11-04T07:22:08.485Z,99.90
2018-11-04T07:24:36.920Z,99.90
2018-11-04T07:27:05.939Z,99.90
2018-11-04T07:29:34.461Z,99.90
2018-11-04T07:32:03.007Z,99.90
2018-11-04T07:34:31.487Z,99.90
2018-11-04T07:36:59.966Z,99.90
2018-11-04T07:39:28.445Z,99.90
2018-11-04T07:41:56.909Z,99.90
2018-11-04T07:44:25.481Z,99.90
2018-11-04T07:46:53.878Z,99.90
2018-11-04T07:49:23.024Z,99.90
2018-11-04T07:51:51.501Z,99.90
2018-11-04T07:54:19.952Z,99.90
2018-11-04T07:56:48.387Z,99.90
2018-11-04T07:59:16.883Z,99.90
2018-11-04T08:01:45.348Z,99.90
2018-11-04T08:04:13.889Z,99.90
2018-11-04T08:06:53.138Z,99.90
2018-11-04T08:09:21.628Z,99.90
2018-11-04T08:11:50.109Z,99.90
2018-11-04T08:14:18.557Z,99.90
2018-11-04T08:16:47.095Z,99.90
2018-11-04T08:19:15.562Z,99.90
2018-11-04T08:21:45.253Z,99.90
2018-11-04T08:24:13.784Z,99.90
2018-11-04T08:26:42.318Z,99.90
2018-11-04T08:29:10.784Z,99.90
2018-11-04T08:31:39.317Z,99.90
2018-11-04T08:34:07.777Z,99.90
2018-11-04T08:36:36.237Z,99.70
2018-11-04T08:39:05.890Z,99.60
2018-11-04T08:41:34.336Z,99.60
2018-11-04T08:44:02.894Z,99.70
2018-11-04T08:46:31.329Z,99.70
2018-11-04T08:48:59.837Z,99.50
2018-11-04T08:51:28.344Z,99.50
2018-11-04T08:53:56.974Z,99.60
2018-11-04T08:56:25.434Z,99.60
2018-11-04T08:58:53.897Z,99.60
2018-11-04T09:01:22.432Z,99.70
2018-11-04T09:03:51.057Z,99.60
2018-11-04T09:06:19.602Z,99.60
2018-11-04T09:08:48.117Z,99.50
2018-11-04T09:11:16.620Z,99.30
2018-11-04T09:13:45.197Z,99.50
2018-11-04T09:16:13.907Z,99.50
2018-11-04T09:18:42.410Z,99.40
2018-11-04T09:21:10.965Z,99.10
2018-11-04T09:23:39.592Z,98.80
2018-11-04T09:26:08.105Z,98.10
2018-11-04T09:28:36.685Z,97.80
2018-11-04T09:31:05.704Z,97.60
2018-11-04T09:33:34.300Z,97.20
2018-11-04T09:36:03.561Z,96.90
2018-11-04T09:38:33.441Z,96.60
2018-11-04T09:41:02.345Z,96.50
2018-11-04T09:43:30.896Z,96.30
2018-11-04T09:45:59.485Z,96.00
2018-11-04T09:48:28.072Z,96.00
2018-11-04T09:50:56.593Z,95.90
2018-11-04T09:53:25.109Z,95.90
2018-11-04T09:55:53.668Z,95.70
2018-11-04T09:58:22.261Z,95.60
2018-11-04T10:00:50.833Z,95.40
2018-11-04T10:03:19.329Z,95.30
2018-11-04T10:05:47.898Z,95.10
2018-11-04T10:08:16.368Z,95.10
2018-11-04T10:10:45.705Z,95.20
2018-11-04T10:13:14.299Z,95.20
2018-11-04T10:15:42.747Z,95.10
2018-11-04T10:18:11.536Z,95.00
2018-11-04T10:20:40.480Z,95.20
2018-11-04T10:23:08.641Z,95.20
2018-11-04T10:25:37.276Z,95.00
2018-11-04T10:28:06.484Z,94.80
2018-11-04T10:30:35.038Z,94.50
2018-11-04T10:33:03.617Z,94.50
2018-11-04T10:35:32.191Z,94.90
2018-11-04T10:38:00.722Z,94.90
2018-11-04T10:40:29.303Z,95.00
2018-11-04T10:42:57.878Z,95.00
2018-11-04T10:45:26.413Z,95.00
2018-11-04T10:47:55.041Z,94.90
2018-11-04T10:50:23.546Z,94.60
2018-11-04T10:52:52.120Z,94.40
2018-11-04T10:55:20.654Z,94.20
2018-11-04T10:57:49.182Z,94.00
2018-11-04T11:00:23.223Z,93.80
2018-11-04T11:02:51.746Z,93.60
2018-11-04T11:05:20.237Z,93.60
2018-11-04T11:07:48.851Z,93.40
2018-11-04T11:10:17.530Z,93.40
2018-11-04T11:12:47.100Z,93.50
2018-11-04T11:15:15.679Z,93.10
2018-11-04T11:17:44.289Z,92.70
2018-11-04T11:20:13.249Z,92.60
2018-11-04T11:22:42.433Z,91.60
2018-11-04T11:25:11.145Z,91.30
2018-11-04T11:27:39.686Z,91.50
2018-11-04T11:30:08.327Z,91.40
2018-11-04T11:32:36.884Z,91.00
2018-11-04T11:35:06.554Z,90.80
2018-11-04T11:37:35.488Z,90.60
2018-11-04T11:40:04.136Z,90.20
2018-11-04T11:42:32.648Z,90.10
2018-11-04T11:45:01.217Z,90.30
2018-11-04T11:47:29.733Z,90.30
2018-11-04T11:49:58.319Z,90.20
2018-11-04T11:52:26.900Z,90.30
2018-11-04T11:54:55.583Z,90.20
2018-11-04T11:57:24.681Z,90.10
2018-11-04T11:59:53.229Z,90.50
2018-11-04T12:02:21.738Z,90.20
2018-11-04T12:04:50.427Z,90.00
2018-11-04T12:07:33.218Z,90.10
2018-11-04T12:10:01.920Z,90.00
2018-11-04T12:12:30.581Z,87.90
2018-11-04T12:14:59.088Z,87.40
2018-11-04T12:17:27.672Z,87.30
2018-11-04T12:19:56.203Z,88.00
2018-11-04T12:25:15.838Z,87.20
2018-11-04T12:27:44.541Z,87.30
2018-11-04T12:33:03.742Z,87.50
2018-11-04T12:35:32.235Z,86.90
2018-11-04T12:38:00.784Z,86.40
2018-11-04T12:40:50.865Z,87.10
2018-11-04T12:43:19.358Z,87.20
2018-11-04T12:45:55.313Z,85.90
2018-11-04T12:51:14.493Z,86.00
2018-11-04T12:53:43.275Z,85.90
2018-11-04T12:56:11.742Z,86.60
2018-11-04T12:58:40.349Z,86.80
2018-11-04T13:01:08.984Z,86.50
2018-11-04T13:03:37.584Z,86.80
2018-11-04T13:06:06.094Z,86.90
2018-11-04T13:08:34.657Z,87.30
2018-11-04T13:11:03.209Z,87.30
2018-11-04T13:13:51.484Z,87.70
2018-11-04T13:16:20.133Z,87.90
2018-11-04T13:18:48.661Z,87.80
2018-11-04T13:21:17.198Z,88.20
2018-11-04T13:23:45.663Z,88.50
2018-11-04T13:26:14.262Z,87.70
2018-11-04T13:28:52.564Z,87.30
2018-11-04T13:34:00.318Z,86.60
2018-11-04T13:36:51.561Z,86.90
2018-11-04T13:39:20.184Z,86.70
2018-11-04T13:41:53.652Z,86.90
2018-11-04T13:44:22.168Z,87.40
2018-11-04T13:46:52.691Z,86.50
2018-11-04T13:49:21.238Z,86.20
2018-11-04T13:51:49.705Z,86.10
2018-11-04T13:54:18.177Z,87.10
2018-11-04T13:56:46.707Z,87.10
2018-11-04T13:59:15.326Z,86.20
2018-11-04T14:01:43.906Z,86.20
2018-11-04T14:04:12.398Z,86.60
2018-11-04T14:06:40.888Z,87.00
2018-11-04T14:09:09.592Z,86.60
2018-11-04T14:11:38.258Z,86.70
2018-11-04T14:14:06.855Z,87.40
2018-11-04T14:16:35.378Z,87.60
2018-11-04T14:19:03.891Z,87.90
2018-11-04T14:21:36.432Z,88.00
2018-11-04T14:24:05.206Z,87.70
2018-11-04T14:26:33.694Z,87.00
2018-11-04T14:29:02.175Z,87.70
2018-11-04T14:31:30.691Z,87.80
2018-11-04T14:33:59.184Z,87.70
2018-11-04T14:36:27.984Z,87.70
2018-11-04T14:38:56.531Z,87.40
2018-11-04T14:41:25.045Z,88.20
2018-11-04T14:43:53.595Z,88.50
2018-11-04T14:46:22.132Z,88.00
2018-11-04T14:48:50.606Z,88.20
2018-11-04T14:51:19.100Z,88.70
2018-11-04T14:53:47.597Z,89.30
2018-11-04T14:56:16.077Z,89.20
2018-11-04T14:58:53.153Z,89.90
2018-11-04T15:01:21.780Z,89.80
2018-11-04T15:03:54.165Z,90.00
2018-11-04T15:06:23.997Z,90.00
2018-11-04T15:08:52.509Z,90.20
2018-11-04T15:11:21.705Z,90.40
2018-11-04T15:13:50.230Z,90.50
2018-11-04T15:16:18.862Z,90.60
2018-11-04T15:18:47.508Z,90.90
2018-11-04T15:21:16.160Z,90.90
2018-11-04T15:23:44.729Z,90.90
2018-11-04T15:26:13.397Z,91.20
2018-11-04T15:28:53.731Z,91.20
2018-11-04T15:31:22.342Z,91.30
2018-11-04T15:33:52.283Z,91.50
2018-11-04T15:36:20.964Z,91.50
2018-11-04T15:38:49.554Z,91.80
2018-11-04T15:43:57.633Z,92.10
2018-11-04T15:46:26.425Z,92.20
2018-11-04T15:48:55.171Z,92.20
2018-11-04T15:51:23.710Z,92.40
2018-11-04T15:53:53.947Z,92.50
2018-11-04T15:56:40.518Z,92.50
2018-11-04T15:59:09.356Z,92.70
2018-11-04T16:01:52.178Z,93.00
2018-11-04T16:04:20.739Z,93.20
2018-11-04T16:06:53.191Z,93.40
2018-11-04T16:09:37.683Z,93.60
2018-11-04T16:14:52.748Z,93.80
2018-11-04T16:17:21.524Z,94.10
2018-11-04T16:19:50.341Z,94.20
2018-11-04T16:44:52.786Z,95.80
2018-11-04T16:53:23.324Z,96.60
2018-11-04T16:55:52.642Z,96.80
2018-11-04T17:01:11.985Z,97.30
2018-11-04T17:03:41.425Z,97.40
2018-11-04T17:06:09.969Z,97.40
2018-11-04T17:08:38.563Z,97.40
2018-11-04T17:13:58.066Z,97.50
2018-11-04T17:16:26.682Z,97.40
2018-11-04T17:18:56.300Z,97.50
2018-11-04T17:21:24.966Z,97.40
2018-11-04T17:23:53.517Z,97.60
2018-11-04T17:26:22.176Z,97.80
2018-11-04T17:28:50.799Z,97.90
2018-11-04T17:34:04.334Z,98.20
2018-11-04T17:36:33.863Z,98.20
2018-11-04T17:39:02.573Z,98.30
2018-11-04T17:41:31.118Z,98.50
2018-11-04T17:43:59.694Z,98.80
2018-11-04T17:46:39.853Z,98.90
2018-11-04T17:49:08.921Z,99.00
2018-11-04T17:51:52.609Z,98.90
2018-11-04T17:54:21.129Z,99.20
2018-11-04T17:56:49.615Z,99.50
2018-11-04T17:59:18.182Z,99.90
2018-11-04T18:01:53.393Z,99.90
2018-11-04T18:04:28.769Z,99.90
2018-11-04T18:06:57.330Z,99.90
2018-11-04T18:09:25.844Z,99.90
2018-11-04T18:11:54.486Z,99.90
2018-11-04T18:14:31.595Z,99.90
2018-11-04T18:17:00.123Z,99.90
2018-11-04T18:19:28.857Z,99.90
2018-11-04T18:21:57.501Z,99.90
2018-11-04T18:24:26.050Z,99.90
2018-11-04T18:26:54.657Z,99.90
2018-11-04T18:32:14.378Z,99.90
2018-11-04T18:34:42.931Z,99.90
2018-11-04T18:37:20.835Z,99.90
2018-11-04T18:39:49.448Z,99.90
2018-11-04T18:42:17.969Z,99.90
2018-11-04T18:44:46.486Z,99.90
2018-11-04T18:47:15.014Z,99.90
2018-11-04T18:49:44.152Z,99.90
2018-11-04T18:52:12.906Z,99.90
2018-11-04T18:54:41.525Z,99.90
2018-11-04T18:57:10.144Z,99.90
2018-11-04T18:59:47.237Z,99.90
2018-11-04T19:02:16.373Z,99.90
2018-11-04T19:04:45.392Z,99.90
2018-11-04T19:07:14.982Z,99.90
2018-11-04T19:09:43.484Z,99.90
2018-11-04T19:12:12.585Z,99.90
2018-11-04T19:14:52.646Z,99.90
2018-11-04T19:17:21.382Z,99.90
2018-11-04T19:19:50.002Z,99.90
2018-11-04T19:22:18.633Z,99.90
2018-11-04T19:24:47.230Z,99.90
2018-11-04T19:27:15.904Z,99.90
2018-11-04T19:29:45.684Z,99.90
2018-11-04T19:32:14.680Z,99.90
2018-11-04T19:34:43.246Z,99.90
2018-11-04T19:37:11.835Z,99.90
2018-11-04T19:39:40.520Z,99.90
2018-11-04T19:42:09.077Z,99.90
2018-11-04T19:44:52.046Z,99.90
2018-11-04T19:47:20.665Z,99.90
2018-11-04T19:49:53.295Z,99.90
2018-11-04T19:55:13.142Z,99.90
2018-11-04T19:57:52.506Z,99.90
2018-11-04T20:03:11.641Z,99.90
2018-11-04T20:05:52.517Z,99.90
2018-11-04T20:11:12.263Z,99.90
2018-11-04T20:13:57.934Z,99.90
2018-11-04T20:16:26.434Z,99.90
2018-11-04T20:19:00.238Z,99.90
2018-11-04T20:21:29.199Z,99.90
2018-11-04T21:00:51.964Z,99.90
2018-11-04T21:09:01.472Z,99.90
2018-11-04T21:11:30.076Z,99.90
2018-11-04T21:13:58.633Z,99.90
2018-11-04T21:16:27.316Z,99.90
2018-11-04T21:18:55.863Z,99.90
2018-11-04T21:21:24.580Z,99.90
2018-11-04T21:23:53.091Z,99.90
2018-11-04T21:26:21.668Z,99.90
2018-11-04T21:28:53.437Z,99.90
2018-11-04T21:31:21.843Z,99.90
2018-11-04T21:33:53.157Z,99.90
2018-11-04T21:36:23.902Z,99.90
2018-11-04T21:38:53.426Z,99.90
2018-11-04T21:41:21.938Z,99.90
2018-11-04T21:43:50.776Z,99.90
2018-11-04T21:46:18.923Z,99.90
2018-11-04T21:48:53.526Z,99.90
2018-11-04T21:51:22.066Z,99.90
2018-11-04T21:53:53.543Z,99.90
2018-11-04T21:59:12.734Z,99.90
2018-11-04T22:01:41.304Z,99.90
2018-11-04T22:04:10.005Z,99.90
2018-11-04T22:06:38.542Z,99.90
2018-11-04T22:09:08.631Z,99.90
2018-11-04T22:11:37.207Z,99.90
2018-11-04T22:14:06.448Z,99.90
2018-11-04T22:16:34.977Z,99.90
2018-11-04T22:19:03.497Z,99.90
2018-11-04T22:21:31.992Z,99.90
2018-11-04T22:24:00.509Z,99.90
2018-11-04T22:26:29.094Z,99.90
2018-11-04T22:28:57.640Z,99.90
2018-11-04T22:31:26.260Z,99.90
2018-11-04T22:33:54.964Z,99.90
2018-11-04T22:36:23.457Z,99.90
2018-11-04T22:38:53.742Z,99.90
2018-11-04T22:41:22.362Z,99.90
2018-11-04T22:43:50.859Z,99.90
2018-11-04T22:46:19.407Z,99.90
2018-11-04T22:48:53.917Z,99.90
2018-11-04T22:51:22.410Z,99.90
2018-11-04T22:53:53.885Z,99.90
2018-11-04T22:56:22.319Z,99.90
2018-11-04T22:58:50.806Z,99.90
2018-11-04T23:01:20.464Z,99.90
2018-11-04T23:03:48.933Z,99.90
2018-11-04T23:06:17.521Z,99.90
2018-11-04T23:08:52.549Z,99.90
2018-11-04T23:11:21.098Z,99.90
2018-11-04T23:13:49.581Z,99.90
2018-11-04T23:16:18.127Z,99.90
2018-11-04T23:18:53.189Z,99.90
2018-11-04T23:21:21.690Z,99.90
2018-11-04T23:23:54.096Z,99.90
2018-11-04T23:26:22.908Z,99.90
2018-11-04T23:28:51.456Z,99.90
2018-11-04T23:34:09.758Z,99.90
2018-11-04T23:36:38.413Z,99.90
2018-11-04T23:39:08.346Z,99.90
2018-11-04T23:41:36.803Z,99.90
2018-11-04T23:44:05.441Z,99.90
2018-11-04T23:46:33.971Z,99.90
2018-11-04T23:49:02.631Z,99.90
2018-11-04T23:51:31.408Z,99.90
2018-11-04T23:53:59.932Z,99.90
2018-11-04T23:56:28.429Z,99.90
2018-11-04T23:58:56.956Z,99.90
